»·PEaware :: UAL2016 KSAN-KSFO

UAL2016 :: KSAN-KSFO

FLIGHT INFORMATION

Flight Status: Arrived
Operator:
United Airlines
More flights by this operator :: More flights under this callsign
Pilot: Lauren G. (5641)
Aircraft: AIRBUS A320
(A320)
More flights by this aircraft type
Origin: KSAN San Diego Intl-Lindbergh
United States
Destination: KSFO San Francisco Intl
United States
More flights between these airports :: More routes between these airports
Route: PADRZ2 IKAYE RIZIN SPLNT STOKD SERFR SERFR3
File this flight plan on PilotEdge
Remarks:
Altitude:
(Current/Filed)
36,000ft
Speed:
(Current/Filed)
454kts
Departed: 08-Oct-18 10:41 AM
Arrived: 08-Oct-18 11:52 AM
Distance/Time
Traveled:
388nm/1:11
Distance/Time
To Go:
Arrived

Flight Plot

Page will automatically refresh every two minutes.

Flight plan parsing failed; only flown route is shown


Map Options




Map Legend


Flown Route
Filed Route
Departure Airport
Arrival Airport
Navaid (VOR, NDB)
Fix

Horizontal Profiles

Position Reports

Time Latitude Longitude Heading Altitude Ground
Speed
08-Oct-18 10:14 32.734142 -117.203366 270 19ft 0kts
08-Oct-18 10:15 32.734142 -117.203366 270 19ft 0kts
08-Oct-18 10:16 32.734142 -117.203366 270 19ft 0kts
08-Oct-18 10:17 32.734142 -117.203366 270 19ft 0kts
08-Oct-18 10:18 32.734142 -117.203366 270 19ft 0kts
08-Oct-18 10:19 32.734142 -117.203366 269 19ft 0kts
08-Oct-18 10:20 32.734142 -117.203366 270 19ft 0kts
08-Oct-18 10:21 32.734142 -117.203366 270 19ft 0kts
08-Oct-18 10:22 32.734142 -117.203366 270 19ft 0kts
08-Oct-18 10:23 32.734142 -117.203366 270 19ft 0kts
08-Oct-18 10:24 32.734142 -117.203366 270 19ft 0kts
08-Oct-18 10:25 32.734142 -117.203366 270 19ft 0kts
08-Oct-18 10:26 32.734142 -117.203366 270 19ft 0kts
08-Oct-18 10:27 32.734142 -117.203366 270 19ft 0kts
08-Oct-18 10:28 32.734142 -117.203366 270 19ft 0kts
08-Oct-18 10:29 32.734142 -117.203366 270 19ft 0kts
08-Oct-18 10:30 32.734142 -117.203366 270 19ft 0kts
08-Oct-18 10:31 32.734142 -117.203366 270 19ft 0kts
08-Oct-18 10:32 32.734142 -117.203288 269 19ft 2kts
08-Oct-18 10:33 32.734296 -117.202638 215 19ft 2kts
08-Oct-18 10:34 32.734850 -117.202662 140 19ft 2kts
08-Oct-18 10:35 32.735032 -117.203298 100 19ft 2kts
08-Oct-18 10:36 32.735049 -117.203409 100 19ft 0kts
08-Oct-18 10:37 32.735419 -117.201929 80 21ft 13kts
08-Oct-18 10:38 32.734122 -117.196270 106 22ft 20kts
08-Oct-18 10:39 32.732411 -117.189123 106 22ft 25kts
08-Oct-18 10:40 32.730303 -117.180502 106 21ft 28kts
08-Oct-18 10:41 32.729507 -117.176734 74 24ft 0kts
08-Oct-18 10:42 32.729610 -117.176307 72 25ft 11kts
08-Oct-18 10:43 32.733004 -117.187489 287 23ft 150kts
08-Oct-18 10:44 32.753517 -117.236019 303 2855ft 194kts
08-Oct-18 10:45 32.787623 -117.297294 302 5636ft 265kts
08-Oct-18 10:46 32.831505 -117.367864 308 9496ft 276kts
08-Oct-18 10:47 32.881201 -117.444774 309 11609ft 337kts
08-Oct-18 10:48 32.936754 -117.531168 310 14039ft 358kts
08-Oct-18 10:49 32.995835 -117.623436 310 14966ft 358kts
08-Oct-18 10:50 33.054294 -117.714798 311 15439ft 364kts
08-Oct-18 10:51 33.109100 -117.775508 321 17288ft 367kts
08-Oct-18 10:52 33.181162 -117.848915 322 19466ft 374kts
08-Oct-18 10:53 33.252347 -117.931544 318 21480ft 382kts
08-Oct-18 10:54 33.326156 -118.019667 318 23336ft 389kts
08-Oct-18 10:55 33.396205 -118.103506 319 24889ft 395kts
08-Oct-18 10:56 33.465729 -118.186913 319 26242ft 401kts
08-Oct-18 10:57 33.533408 -118.268307 319 27451ft 406kts
08-Oct-18 10:58 33.608634 -118.359000 319 28631ft 412kts
08-Oct-18 10:59 33.684019 -118.450133 319 29768ft 413kts
08-Oct-18 11:00 33.756748 -118.538312 320 31146ft 406kts
08-Oct-18 11:01 33.830849 -118.628352 320 32454ft 400kts
08-Oct-18 11:02 33.899787 -118.712320 320 33557ft 396kts
08-Oct-18 11:03 33.974118 -118.803086 320 34626ft 392kts
08-Oct-18 11:04 34.049214 -118.894989 319 35204ft 400kts
08-Oct-18 11:05 34.122951 -118.985510 317 35702ft 407kts
08-Oct-18 11:06 34.180306 -119.082219 306 35929ft 418kts
08-Oct-18 11:07 34.237400 -119.193190 306 35923ft 418kts
08-Oct-18 11:08 34.297096 -119.309442 306 35925ft 418kts
08-Oct-18 11:09 34.357179 -119.426822 306 35929ft 419kts
08-Oct-18 11:10 34.417917 -119.539768 314 35933ft 414kts
08-Oct-18 11:11 34.493025 -119.633115 317 35929ft 412kts
08-Oct-18 11:12 34.567551 -119.724954 316 35878ft 416kts
08-Oct-18 11:13 34.647386 -119.823591 316 35899ft 421kts
08-Oct-18 11:14 34.727987 -119.923479 316 35948ft 423kts
08-Oct-18 11:15 34.808026 -120.022965 316 35955ft 423kts
08-Oct-18 11:16 34.889376 -120.124375 316 35944ft 423kts
08-Oct-18 11:17 34.969703 -120.224813 317 35939ft 421kts
08-Oct-18 11:18 35.048573 -120.323716 318 35919ft 420kts
08-Oct-18 11:19 35.129236 -120.419281 321 35902ft 419kts
08-Oct-18 11:20 35.195752 -120.493819 321 35918ft 419kts
08-Oct-18 11:21 35.289053 -120.598655 321 35928ft 420kts
08-Oct-18 11:22 35.368990 -120.688746 320 35927ft 420kts
08-Oct-18 11:23 35.433262 -120.761360 320 35926ft 419kts
08-Oct-18 11:24 35.532346 -120.863423 326 35914ft 418kts
08-Oct-18 11:25 35.607126 -120.932744 326 35923ft 418kts
08-Oct-18 11:26 35.713344 -121.031847 325 35892ft 420kts
08-Oct-18 11:27 35.789874 -121.103257 325 35873ft 427kts
08-Oct-18 11:28 35.884511 -121.191808 324 35308ft 441kts
08-Oct-18 11:29 35.997099 -121.297585 324 34124ft 442kts
08-Oct-18 11:30 36.073852 -121.368541 328 32024ft 440kts
08-Oct-18 11:31 36.150366 -121.428596 329 29784ft 442kts
08-Oct-18 11:32 36.246530 -121.503751 329 26792ft 446kts
08-Oct-18 11:33 36.347938 -121.583256 329 24077ft 433kts
08-Oct-18 11:34 36.438593 -121.654658 329 23285ft 381kts
08-Oct-18 11:35 36.521044 -121.719648 329 22259ft 357kts
08-Oct-18 11:36 36.603624 -121.784846 330 20448ft 353kts
08-Oct-18 11:37 36.682039 -121.847002 330 20014ft 350kts
08-Oct-18 11:38 36.763631 -121.900440 348 18253ft 334kts
08-Oct-18 11:39 36.850926 -121.924731 348 16270ft 323kts
08-Oct-18 11:40 36.935601 -121.948439 348 14319ft 312kts
08-Oct-18 11:41 37.014876 -121.977676 344 12403ft 304kts
08-Oct-18 11:42 37.090041 -122.007051 344 11462ft 267kts
08-Oct-18 11:43 37.152622 -122.031504 343 10270ft 257kts
08-Oct-18 11:44 37.217086 -122.056698 341 8830ft 256kts
08-Oct-18 11:45 37.283543 -122.082757 339 7771ft 263kts
08-Oct-18 11:46 37.350525 -122.109128 339 6580ft 255kts
08-Oct-18 11:47 37.416109 -122.133134 343 5405ft 248kts
08-Oct-18 11:48 37.477218 -122.153970 343 4757ft 224kts
08-Oct-18 11:49 37.532736 -122.174485 331 4126ft 207kts
08-Oct-18 11:50 37.558901 -122.233659 291 2620ft 215kts
08-Oct-18 11:51 37.585611 -122.297229 299 1259ft 192kts
08-Oct-18 11:52 37.606874 -122.347312 301 266ft 138kts
08-Oct-18 11:53 37.619238 -122.376487 302 22ft 45kts
08-Oct-18 11:54 37.619096 -122.380268 251 21ft 5kts
08-Oct-18 11:55 37.620501 -122.384915 227 21ft 11kts
08-Oct-18 11:56 37.618906 -122.385945 172 21ft 0kts

Navigation Log

Ident Type
Flight plan parsing failed, navigation log unavailable